Flight Track Log - Related Links

Times and Time Zones

All times are in EDT time to prevent confusion due to time zone crossing. See the AWI3551 flight status page for this flight to view local times or setup timezone preferences in your user account.

Time Position Orientation Groundspeed Altitude Reporting Facility
EDT Latitude Longitude Course Direction KTS MPH feet Rate Location/Type
Tue 05:34:26 AM 42.9333 -78.7500 180° South 149 171 1,500  Level Buffalo TRACON
Tue 05:35:32 AM 42.8833 -78.7667 194° South 210 242 3,400 1,912 Climbing Buffalo TRACON
Tue 05:36:19 AM 42.8294 -78.7686 182° South 234 269 5,100 1,907 Climbing Cleveland Center
Tue 05:37:00 AM 42.5905 -78.6781 172° South  Level FlightAware Approximate
Tue 05:37:19 AM 42.7583 -78.7508 170° South 254 292 6,800  Level Cleveland Center
Tue 05:38:00 AM 42.4765 -78.6572 173° South  Level FlightAware Approximate
Tue 05:38:19 AM 42.6767 -78.7361 172° South 281 323 8,500  Level Cleveland Center
Tue 05:39:00 AM 42.3789 -78.6500 180° South  Level FlightAware Approximate
Tue 05:39:19 AM 42.5994 -78.7189 171° South 298 343 10,400  Level Cleveland Center
Tue 05:40:19 AM 42.5136 -78.7017 172° South 299 344 12,500 1,850 Climbing Cleveland Center
Tue 05:41:19 AM 42.4258 -78.6844 172° South 313 360 14,100 1,550 Climbing Cleveland Center
Tue 05:42:19 AM 42.3314 -78.6508 165° South 329 379 15,600 1,500 Climbing Cleveland Center
Tue 05:43:19 AM 42.2369 -78.6058 161° South 341 392 17,100 1,550 Climbing Cleveland Center
Tue 05:44:19 AM 42.1508 -78.5667 161° South 358 412 18,700 1,600 Climbing Cleveland Center
Tue 05:45:19 AM 42.0436 -78.5142 160° South 368 423 20,300 1,150 Climbing Cleveland Center
Tue 05:46:19 AM 41.9447 -78.4669 160° South 373 429 21,000 350 Climbing Cleveland Center
Tue 05:47:19 AM 41.8439 -78.4231 162° South 373 429 21,000  Level Cleveland Center
Tue 05:48:19 AM 41.7408 -78.3736 160° South 384 442 21,000  Level Cleveland Center
Tue 05:49:19 AM 41.6375 -78.3242 160° South 390 449 21,000  Level Cleveland Center
Tue 05:50:19 AM 41.5325 -78.2781 162° South 390 449 21,000  Level Cleveland Center
Tue 05:51:08 AM 41.4569 -78.2453 162° South 389 448 21,000  Level New York Center
Tue 05:52:06 AM 41.3639 -78.1992 160° South 397 457 21,000  Level New York Center
Tue 05:53:06 AM 41.2628 -78.1519 161° South 397 457 21,000  Level New York Center
Tue 05:54:06 AM 41.1594 -78.1050 161° South 397 457 21,000  Level New York Center
Tue 05:55:08 AM 41.0600 -78.0583 161° South 397 457 21,000 -50 Level New York Center
Tue 05:56:07 AM 40.9606 -78.0147 162° South 392 451 20,900 -605 Descending New York Center
Tue 05:57:07 AM 40.8761 -77.9317 143° Southeast 392 451 19,800 -950 Descending New York Center
Tue 05:58:07 AM 40.8228 -77.8108 120° Southeast 376 433 19,000 -403 Descending New York Center
Tue 05:59:06 AM 40.7675 -77.6900 121° Southeast 376 433 19,000  Level New York Center
Tue 06:00:07 AM 40.7122 -77.5667 121° Southeast 387 445 19,000  Level New York Center
Tue 06:01:07 AM 40.6489 -77.4317 122° Southeast 393 452 19,000  Level New York Center
Tue 06:02:05 AM 40.5931 -77.3117 121° Southeast 387 445 19,000  Level New York Center
Tue 06:03:07 AM 40.5392 -77.1944 121° Southeast 387 445 19,000  Level New York Center
Tue 06:04:06 AM 40.4872 -77.0722 119° Southeast 382 440 19,000  Level New York Center
Tue 06:05:07 AM 40.4503 -76.9433 111° Southeast 382 440 19,000  Level New York Center
Tue 06:06:07 AM 40.4111 -76.8117 111° Southeast 377 434 19,000 -610 Level New York Center
Tue 06:07:05 AM 40.3717 -76.6883 113° Southeast 377 434 17,800 -1,361 Descending New York Center
Tue 06:08:06 AM 40.3378 -76.5736 111° Southeast 377 434 16,300 -1,426 Descending New York Center
Tue 06:09:07 AM 40.2997 -76.4508 112° Southeast 366 421 14,900 -1,537 Descending New York Center
Tue 06:10:07 AM 40.2583 -76.3169 112° Southeast 358 412 13,200 -1,613 Descending New York Center
Tue 06:11:06 AM 40.2219 -76.1997 112° Southeast 358 412 11,700 -1,462 Descending New York Center
Tue 06:12:06 AM 40.1931 -76.1022 111° Southeast 336 387 10,300 -1,300 Descending New York Center
Tue 06:13:06 AM 40.1606 -75.9939 111° Southeast 322 371 9,100 -1,150 Descending New York Center
Tue 06:14:06 AM 40.1275 -75.8883 112° Southeast 309 356 8,000 -545 Descending New York Center
Tue 06:15:07 AM 40.1569 -75.7872 69° East 268 308 8,000  Level New York Center
Tue 06:16:07 AM 40.1833 -75.7075 67° East 263 303 8,000  Level New York Center
Tue 06:17:07 AM 40.2244 -75.6208 58° Northeast 274 315 8,000  Level New York Center
Tue 06:18:05 AM 40.2658 -75.5258 60° Northeast 274 315 8,000  Level New York Center
Tue 06:19:06 AM 40.3022 -75.4439 60° Northeast 269 310 8,000  Level New York Center
Tue 06:20:07 AM 40.3289 -75.3531 69° East 269 310 8,000  Level New York Center
Tue 06:21:12 AM 40.2786 -75.3061 145° Southeast 202 232 8,000 -101 Level New York Center
Tue 06:22:06 AM 40.2131 -75.2775 162° South 226 260 7,800 -678 Descending New York Center
Tue 06:23:07 AM 40.1472 -75.2486 161° South 253 291 6,700 -893 Descending New York Center
Tue 06:24:07 AM 40.0797 -75.2200 162° South 242 278 6,000 -545 Descending New York Center
Tue 06:24:24 AM 40.0667 -75.2167 169° South 235 270 6,000  Level Philadelphia TRACON
Tue 06:25:24 AM 40.0000 -75.1833 159° South 203 234 6,000  Level Philadelphia TRACON
Tue 06:26:29 AM 39.9833 -75.1167 108° East 253 291 6,000 -211 Level Philadelphia TRACON
Tue 06:27:18 AM 40.0000 -75.0333 75° East 236 272 5,600 -550 Descending Philadelphia TRACON
Tue 06:28:18 AM 40.0167 -74.9667 72° East 210 242 5,000 -318 Descending Philadelphia TRACON
Tue 06:29:30 AM 40.0333 -74.8833 75° East 215 247 4,900 -500 Descending Philadelphia TRACON
Tue 06:30:18 AM 40.0500 -74.8167 72° East 210 242 4,000 -450 Descending Philadelphia TRACON
Tue 06:31:30 AM 40.0000 -74.8167 180° South 159 183 4,000  Level Philadelphia TRACON
Tue 06:32:30 AM 39.9667 -74.8500 217° Southwest 168 193 4,000  Level Philadelphia TRACON
Tue 06:33:30 AM 39.9333 -74.9000 229° Southwest 160 184 4,000  Level Philadelphia TRACON
Tue 06:34:30 AM 39.9333 -74.9500 270° West 156 180 4,000 -350 Level Philadelphia TRACON
Tue 06:35:30 AM 39.9167 -75.0167 252° West 155 178 3,300 -800 Descending Philadelphia TRACON
Tue 06:36:30 AM 39.9000 -75.0667 247° West 166 191 2,400 -900 Descending Philadelphia TRACON

Login

Don't have an account? Register now (free) for customized features, flight alerts, and more!